Terminal Aerodrome Forecast
Issued by NWS

Home | Current Version | Previous Version | Text Only | Print | Product List | Glossary On
Versions: 1 2 3 4 5 6 7 8 9 10 11 12 13 14 15 16 17 18 19 20 21 22 23 24 25 26 27
000
FTUS43 KMQT 231100
TAFCMX
TAF
KCMX 231136Z 2312/2412 09006KT 1/4SM FG OVC002
     FM231500 10007KT 2SM BR OVC008
     FM231700 09009KT P6SM OVC015
     FM231900 09007KT P6SM OVC025
     FM232200 10008KT P6SM BKN035
     FM240400 11006KT 3SM BR BKN004=

USA.gov is the U.S. government's official web portal to all federal, state and local government web resources and services.